Hayti, South Dakota
Current Conditions -  °F | °C
As of 8:53 PM on Friday 24 Oct 2014 (Local Time) from KATY Reporting Station
Clear Clear  
Wind Chill: 59°   Ceiling: Unl
Heat Index: 59°   Visibility: 10mi
Dew Point: 39°   Wind: 7mph
Humidity: 48%   Direction: 300°WNW
Pressure: 29.95"   Gusts: NA
Location:  44.66°N, 97.21°W
Report Text: KATY 250153Z AUTO 30006KT 10SM CLR 15/04 A2995 RMK AO2 SLP146 T01500039 $
Loading
Personal Weather Stations






























Interactive Weather Map
Tropical Storm Tracking
New forecast layout! Learn more

10-Day Weather Forecast

Advertisements
Track Severe Weather on mobile